sensor_id;sensor_type;location;lat;lon;timestamp;pressure;altitude;pressure_sealevel;temperature;humidity
80198;BME280;69517;52.030;7.106;2023-09-12T00:01:36;100441.91;;;24.77;96.79
80198;BME280;69517;52.030;7.106;2023-09-12T00:04:05;100441.91;;;24.77;96.81
80198;BME280;69517;52.030;7.106;2023-09-12T00:06:31;100473.63;;;24.77;97.12
80198;BME280;69517;52.030;7.106;2023-09-12T00:08:57;100511.38;;;24.79;96.78
80198;BME280;69517;52.030;7.106;2023-09-12T00:11:23;100513.88;;;24.80;96.98
80198;BME280;69517;52.030;7.106;2023-09-12T00:13:50;100511.66;;;24.85;96.52
80198;BME280;69517;52.030;7.106;2023-09-12T00:16:17;100488.00;;;24.84;96.64
80198;BME280;69517;52.030;7.106;2023-09-12T00:18:43;100473.09;;;24.83;96.55
80198;BME280;69517;52.030;7.106;2023-09-12T00:21:11;100496.78;;;24.84;96.50
80198;BME280;69517;52.030;7.106;2023-09-12T00:23:37;100498.03;;;24.80;96.58
80198;BME280;69517;52.030;7.106;2023-09-12T00:26:03;100495.50;;;24.79;96.94
80198;BME280;69517;52.030;7.106;2023-09-12T00:28:29;100483.25;;;24.78;97.13
80198;BME280;69517;52.030;7.106;2023-09-12T00:30:56;100492.72;;;24.80;97.09
80198;BME280;69517;52.030;7.106;2023-09-12T00:33:22;100491.88;;;24.80;96.86
80198;BME280;69517;52.030;7.106;2023-09-12T00:35:48;100458.50;;;24.79;96.77
80198;BME280;69517;52.030;7.106;2023-09-12T00:38:16;100443.03;;;24.84;96.53
80198;BME280;69517;52.030;7.106;2023-09-12T00:40:42;100432.75;;;24.81;96.91
80198;BME280;69517;52.030;7.106;2023-09-12T00:43:08;100428.56;;;24.78;96.80
80198;BME280;69517;52.030;7.106;2023-09-12T00:45:35;100448.63;;;24.81;96.87
80198;BME280;69517;52.030;7.106;2023-09-12T00:48:02;100437.47;;;24.77;97.19
80198;BME280;69517;52.030;7.106;2023-09-12T00:50:29;100452.47;;;24.77;96.82
80198;BME280;69517;52.030;7.106;2023-09-12T00:52:56;100484.66;;;24.82;96.90
80198;BME280;69517;52.030;7.106;2023-09-12T00:55:24;100533.09;;;24.82;96.46
80198;BME280;69517;52.030;7.106;2023-09-12T00:57:50;100558.97;;;24.79;96.90
80198;BME280;69517;52.030;7.106;2023-09-12T01:00:17;100573.97;;;24.78;96.81
80198;BME280;69517;52.030;7.106;2023-09-12T01:02:44;100570.38;;;24.79;96.74
80198;BME280;69517;52.030;7.106;2023-09-12T01:05:13;100542.25;;;24.78;97.11
80198;BME280;69517;52.030;7.106;2023-09-12T01:07:39;100521.38;;;24.75;97.20
80198;BME280;69517;52.030;7.106;2023-09-12T01:10:06;100520.97;;;24.80;96.82
80198;BME280;69517;52.030;7.106;2023-09-12T01:12:33;100490.50;;;24.76;97.08
80198;BME280;69517;52.030;7.106;2023-09-12T01:15:00;100508.00;;;24.77;96.86
80198;BME280;69517;52.030;7.106;2023-09-12T01:17:26;100485.88;;;24.78;96.80
80198;BME280;69517;52.030;7.106;2023-09-12T01:19:53;100492.31;;;24.75;97.12
80198;BME280;69517;52.030;7.106;2023-09-12T01:22:36;100468.94;;;24.80;96.72
80198;BME280;69517;52.030;7.106;2023-09-12T01:25:14;100462.38;;;24.75;96.86
80198;BME280;69517;52.030;7.106;2023-09-12T01:27:45;100437.63;;;24.76;96.84
80198;BME280;69517;52.030;7.106;2023-09-12T01:30:12;100427.03;;;24.76;96.59
80198;BME280;69517;52.030;7.106;2023-09-12T01:32:38;100425.66;;;24.81;96.44
80198;BME280;69517;52.030;7.106;2023-09-12T01:35:05;100408.97;;;24.81;96.28
80198;BME280;69517;52.030;7.106;2023-09-12T01:37:31;100404.09;;;24.76;96.67
80198;BME280;69517;52.030;7.106;2023-09-12T01:39:58;100411.19;;;24.76;96.75
80198;BME280;69517;52.030;7.106;2023-09-12T01:42:24;100419.25;;;24.74;96.75
80198;BME280;69517;52.030;7.106;2023-09-12T01:44:55;100413.81;;;24.76;96.85
80198;BME280;69517;52.030;7.106;2023-09-12T01:47:22;100407.13;;;24.72;96.77
80198;BME280;69517;52.030;7.106;2023-09-12T01:49:50;100407.81;;;24.74;96.79
80198;BME280;69517;52.030;7.106;2023-09-12T01:52:17;100399.19;;;24.72;97.09
80198;BME280;69517;52.030;7.106;2023-09-12T01:54:44;100388.34;;;24.75;96.79
80198;BME280;69517;52.030;7.106;2023-09-12T01:57:11;100396.41;;;24.73;96.66
80198;BME280;69517;52.030;7.106;2023-09-12T01:59:37;100388.34;;;24.75;96.77
80198;BME280;69517;52.030;7.106;2023-09-12T02:02:05;100383.91;;;24.75;97.02
80198;BME280;69517;52.030;7.106;2023-09-12T02:04:32;100375.97;;;24.75;96.50
80198;BME280;69517;52.030;7.106;2023-09-12T02:06:58;100361.91;;;24.75;96.57
80198;BME280;69517;52.030;7.106;2023-09-12T02:09:24;100344.09;;;24.77;96.46
80198;BME280;69517;52.030;7.106;2023-09-12T02:11:51;100332.84;;;24.75;96.83
80198;BME280;69517;52.030;7.106;2023-09-12T02:14:17;100335.34;;;24.76;96.56
80198;BME280;69517;52.030;7.106;2023-09-12T02:16:43;100351.06;;;24.78;96.67
80198;BME280;69517;52.030;7.106;2023-09-12T02:19:11;100361.91;;;24.75;96.64
80198;BME280;69517;52.030;7.106;2023-09-12T02:21:37;100375.81;;;24.77;96.44
80198;BME280;69517;52.030;7.106;2023-09-12T02:24:04;100379.47;;;24.76;96.61
80198;BME280;69517;52.030;7.106;2023-09-12T02:26:30;100386.38;;;24.77;96.52
80198;BME280;69517;52.030;7.106;2023-09-12T02:29:01;100392.94;;;24.73;96.78
80198;BME280;69517;52.030;7.106;2023-09-12T02:31:27;100398.09;;;24.74;96.69
80198;BME280;69517;52.030;7.106;2023-09-12T02:33:53;100402.41;;;24.75;96.68
80198;BME280;69517;52.030;7.106;2023-09-12T02:36:21;100400.44;;;24.77;96.47
80198;BME280;69517;52.030;7.106;2023-09-12T02:38:47;100397.41;;;24.82;96.31
80198;BME280;69517;52.030;7.106;2023-09-12T02:41:14;100397.81;;;24.77;96.62
80198;BME280;69517;52.030;7.106;2023-09-12T02:43:40;100392.13;;;24.82;96.45
80198;BME280;69517;52.030;7.106;2023-09-12T02:46:06;100381.25;;;24.75;96.80
80198;BME280;69517;52.030;7.106;2023-09-12T02:48:32;100364.56;;;24.75;96.55
80198;BME280;69517;52.030;7.106;2023-09-12T02:50:59;100343.81;;;24.70;96.73
80198;BME280;69517;52.030;7.106;2023-09-12T02:53:26;100348.94;;;24.72;96.85
80198;BME280;69517;52.030;7.106;2023-09-12T02:55:52;100346.31;;;24.72;96.88
80198;BME280;69517;52.030;7.106;2023-09-12T02:58:19;100356.63;;;24.75;96.78
80198;BME280;69517;52.030;7.106;2023-09-12T03:00:46;100358.56;;;24.73;96.82
80198;BME280;69517;52.030;7.106;2023-09-12T03:03:15;100370.81;;;24.74;96.78
80198;BME280;69517;52.030;7.106;2023-09-12T03:05:42;100384.03;;;24.74;96.52
80198;BME280;69517;52.030;7.106;2023-09-12T03:08:08;100393.06;;;24.71;96.87
80198;BME280;69517;52.030;7.106;2023-09-12T03:10:36;100399.91;;;24.74;96.50
80198;BME280;69517;52.030;7.106;2023-09-12T03:13:02;100388.59;;;24.72;96.81
80198;BME280;69517;52.030;7.106;2023-09-12T03:15:28;100382.34;;;24.73;96.77
80198;BME280;69517;52.030;7.106;2023-09-12T03:17:54;100378.19;;;24.70;96.87
80198;BME280;69517;52.030;7.106;2023-09-12T03:20:21;100369.97;;;24.73;96.62
80198;BME280;69517;52.030;7.106;2023-09-12T03:22:47;100378.75;;;24.74;96.79
80198;BME280;69517;52.030;7.106;2023-09-12T03:25:13;100380.13;;;24.78;96.44
80198;BME280;69517;52.030;7.106;2023-09-12T03:27:41;100388.34;;;24.75;96.57
80198;BME280;69517;52.030;7.106;2023-09-12T03:30:07;100379.00;;;24.71;96.92
80198;BME280;69517;52.030;7.106;2023-09-12T03:32:34;100387.78;;;24.71;96.71
80198;BME280;69517;52.030;7.106;2023-09-12T03:35:00;100375.25;;;24.73;96.48
80198;BME280;69517;52.030;7.106;2023-09-12T03:37:26;100375.81;;;24.77;96.37
80198;BME280;69517;52.030;7.106;2023-09-12T03:39:53;100366.38;;;24.74;96.31
80198;BME280;69517;52.030;7.106;2023-09-12T03:42:19;100367.47;;;24.72;96.58
80198;BME280;69517;52.030;7.106;2023-09-12T03:44:47;100346.06;;;24.75;96.54
80198;BME280;69517;52.030;7.106;2023-09-12T03:47:13;100340.06;;;24.73;96.62
80198;BME280;69517;52.030;7.106;2023-09-12T03:49:40;100337.53;;;24.71;96.45
80198;BME280;69517;52.030;7.106;2023-09-12T03:52:06;100342.56;;;24.74;96.44
80198;BME280;69517;52.030;7.106;2023-09-12T03:54:32;100344.50;;;24.72;96.58
80198;BME280;69517;52.030;7.106;2023-09-12T03:56:58;100335.59;;;24.73;96.74
80198;BME280;69517;52.030;7.106;2023-09-12T03:59:25;100320.84;;;24.71;96.39
80198;BME280;69517;52.030;7.106;2023-09-12T04:01:52;100308.75;;;24.68;96.61
80198;BME280;69517;52.030;7.106;2023-09-12T04:04:19;100312.09;;;24.70;96.55
80198;BME280;69517;52.030;7.106;2023-09-12T04:06:45;100314.59;;;24.72;96.51
80198;BME280;69517;52.030;7.106;2023-09-12T04:09:12;100317.53;;;24.69;96.60
80198;BME280;69517;52.030;7.106;2023-09-12T04:11:38;100313.75;;;24.71;96.76
80198;BME280;69517;52.030;7.106;2023-09-12T04:14:04;100316.56;;;24.70;96.70
80198;BME280;69517;52.030;7.106;2023-09-12T04:16:30;100326.84;;;24.73;96.45
80198;BME280;69517;52.030;7.106;2023-09-12T04:18:58;100329.91;;;24.68;96.98
80198;BME280;69517;52.030;7.106;2023-09-12T04:21:24;100339.63;;;24.67;96.87
80198;BME280;69517;52.030;7.106;2023-09-12T04:23:50;100339.63;;;24.67;96.94
80198;BME280;69517;52.030;7.106;2023-09-12T04:26:17;100355.09;;;24.72;96.46
80198;BME280;69517;52.030;7.106;2023-09-12T04:28:43;100354.25;;;24.72;96.78
80198;BME280;69517;52.030;7.106;2023-09-12T04:31:09;100347.69;;;24.66;96.76
80198;BME280;69517;52.030;7.106;2023-09-12T04:33:36;100352.72;;;24.69;96.82
80198;BME280;69517;52.030;7.106;2023-09-12T04:36:03;100339.91;;;24.64;96.85
80198;BME280;69517;52.030;7.106;2023-09-12T04:38:30;100349.50;;;24.65;97.02
80198;BME280;69517;52.030;7.106;2023-09-12T04:40:59;100344.50;;;24.62;97.13
80198;BME280;69517;52.030;7.106;2023-09-12T04:43:28;100349.50;;;24.65;96.79
80198;BME280;69517;52.030;7.106;2023-09-12T04:45:54;100349.50;;;24.65;96.93
80198;BME280;69517;52.030;7.106;2023-09-12T04:48:20;100350.22;;;24.67;96.83
80198;BME280;69517;52.030;7.106;2023-09-12T04:50:47;100351.47;;;24.73;96.41
80198;BME280;69517;52.030;7.106;2023-09-12T04:53:14;100351.31;;;24.65;96.62
80198;BME280;69517;52.030;7.106;2023-09-12T04:55:41;100356.22;;;24.70;96.53
80198;BME280;69517;52.030;7.106;2023-09-12T04:58:07;100358.41;;;24.64;96.82
80198;BME280;69517;52.030;7.106;2023-09-12T05:00:33;100360.38;;;24.62;96.81
80198;BME280;69517;52.030;7.106;2023-09-12T05:03:01;100364.41;;;24.66;96.58
80198;BME280;69517;52.030;7.106;2023-09-12T05:05:28;100369.13;;;24.63;96.93
80198;BME280;69517;52.030;7.106;2023-09-12T05:07:55;100376.91;;;24.64;96.88
80198;BME280;69517;52.030;7.106;2023-09-12T05:10:22;100384.03;;;24.64;96.76
80198;BME280;69517;52.030;7.106;2023-09-12T05:12:48;100383.88;;;24.65;96.54
80198;BME280;69517;52.030;7.106;2023-09-12T05:15:15;100381.09;;;24.57;95.43
80198;BME280;69517;52.030;7.106;2023-09-12T05:17:41;100383.81;;;23.33;96.30
80198;BME280;69517;52.030;7.106;2023-09-12T05:20:08;100390.88;;;23.00;98.70
80198;BME280;69517;52.030;7.106;2023-09-12T05:22:34;100394.72;;;22.96;98.80
80198;BME280;69517;52.030;7.106;2023-09-12T05:25:00;100400.50;;;22.90;99.21
80198;BME280;69517;52.030;7.106;2023-09-12T05:27:28;100408.63;;;22.87;99.18
80198;BME280;69517;52.030;7.106;2023-09-12T05:29:54;100414.75;;;22.65;100.00
80198;BME280;69517;52.030;7.106;2023-09-12T05:32:21;100417.03;;;23.24;97.78
80198;BME280;69517;52.030;7.106;2023-09-12T05:34:47;100412.88;;;23.74;95.43
80198;BME280;69517;52.030;7.106;2023-09-12T05:37:14;100427.63;;;23.98;94.31
80198;BME280;69517;52.030;7.106;2023-09-12T05:39:41;100422.53;;;24.06;94.17
80198;BME280;69517;52.030;7.106;2023-09-12T05:42:07;100412.53;;;24.09;94.22
80198;BME280;69517;52.030;7.106;2023-09-12T05:44:35;100417.44;;;24.14;94.38
80198;BME280;69517;52.030;7.106;2023-09-12T05:47:01;100420.94;;;24.14;94.57
80198;BME280;69517;52.030;7.106;2023-09-12T05:49:27;100417.28;;;24.15;94.53
80198;BME280;69517;52.030;7.106;2023-09-12T05:51:54;100414.66;;;24.15;95.11
80198;BME280;69517;52.030;7.106;2023-09-12T05:54:20;100408.19;;;24.19;94.85
80198;BME280;69517;52.030;7.106;2023-09-12T05:56:46;100409.03;;;24.20;94.46
80198;BME280;69517;52.030;7.106;2023-09-12T05:59:13;100412.34;;;24.22;94.93
80198;BME280;69517;52.030;7.106;2023-09-12T06:01:40;100414.31;;;24.20;94.62
80198;BME280;69517;52.030;7.106;2023-09-12T06:04:07;100409.47;;;24.25;94.61
80198;BME280;69517;52.030;7.106;2023-09-12T06:06:34;100410.56;;;24.22;94.45
80198;BME280;69517;52.030;7.106;2023-09-12T06:09:00;100399.59;;;24.27;93.99
80198;BME280;69517;52.030;7.106;2023-09-12T06:11:28;100402.94;;;24.29;94.38
80198;BME280;69517;52.030;7.106;2023-09-12T06:13:56;100400.41;;;24.27;94.59
80198;BME280;69517;52.030;7.106;2023-09-12T06:16:22;100397.66;;;24.29;94.50
80198;BME280;69517;52.030;7.106;2023-09-12T06:18:50;100400.69;;;24.24;94.20
80198;BME280;69517;52.030;7.106;2023-09-12T06:21:18;100399.16;;;24.22;94.68
80198;BME280;69517;52.030;7.106;2023-09-12T06:23:46;100402.09;;;24.29;94.61
80198;BME280;69517;52.030;7.106;2023-09-12T06:26:12;100418.97;;;24.37;93.95
80198;BME280;69517;52.030;7.106;2023-09-12T06:28:38;100435.34;;;24.31;94.42
80198;BME280;69517;52.030;7.106;2023-09-12T06:31:07;100444.38;;;24.29;94.77
80198;BME280;69517;52.030;7.106;2023-09-12T06:33:33;100460.13;;;24.40;93.98
80198;BME280;69517;52.030;7.106;2023-09-12T06:36:01;100467.50;;;24.36;94.25
80198;BME280;69517;52.030;7.106;2023-09-12T06:38:29;100473.75;;;24.35;94.21
80198;BME280;69517;52.030;7.106;2023-09-12T06:40:55;100474.72;;;24.34;94.29
80198;BME280;69517;52.030;7.106;2023-09-12T06:43:21;100478.78;;;24.38;93.99
80198;BME280;69517;52.030;7.106;2023-09-12T06:45:47;100484.75;;;24.40;94.20
80198;BME280;69517;52.030;7.106;2023-09-12T06:48:14;100480.59;;;24.38;94.21
80198;BME280;69517;52.030;7.106;2023-09-12T06:50:41;100484.75;;;24.40;94.11
80198;BME280;69517;52.030;7.106;2023-09-12T06:53:09;100476.38;;;24.35;94.38
80198;BME280;69517;52.030;7.106;2023-09-12T06:55:35;100472.38;;;24.41;94.22
80198;BME280;69517;52.030;7.106;2023-09-12T06:58:02;100477.53;;;24.42;94.34
80198;BME280;69517;52.030;7.106;2023-09-12T07:00:28;100473.50;;;24.38;94.12
80198;BME280;69517;52.030;7.106;2023-09-12T07:02:56;100474.91;;;24.42;94.31
80198;BME280;69517;52.030;7.106;2023-09-12T07:05:22;100492.00;;;24.38;94.50
80198;BME280;69517;52.030;7.106;2023-09-12T07:07:48;100499.75;;;24.40;94.56
80198;BME280;69517;52.030;7.106;2023-09-12T07:10:16;100516.72;;;24.37;94.33
80198;BME280;69517;52.030;7.106;2023-09-12T07:12:42;100510.59;;;24.37;94.13
80198;BME280;69517;52.030;7.106;2023-09-12T07:15:09;100512.81;;;24.32;94.65
80198;BME280;69517;52.030;7.106;2023-09-12T07:17:35;100525.63;;;24.36;94.73
80198;BME280;69517;52.030;7.106;2023-09-12T07:20:02;100532.59;;;24.37;94.68
80198;BME280;69517;52.030;7.106;2023-09-12T07:22:29;100528.25;;;24.36;94.61
80198;BME280;69517;52.030;7.106;2023-09-12T07:24:55;100517.44;;;24.39;94.45
80198;BME280;69517;52.030;7.106;2023-09-12T07:27:26;100507.84;;;24.38;94.93
80198;BME280;69517;52.030;7.106;2023-09-12T07:29:54;100499.47;;;24.33;94.96
80198;BME280;69517;52.030;7.106;2023-09-12T07:32:20;100482.38;;;24.37;94.83
80198;BME280;69517;52.030;7.106;2023-09-12T07:34:46;100477.53;;;24.42;94.81
80198;BME280;69517;52.030;7.106;2023-09-12T07:37:13;100461.97;;;24.39;94.63
80198;BME280;69517;52.030;7.106;2023-09-12T07:39:39;100463.91;;;24.47;94.56
80198;BME280;69517;52.030;7.106;2023-09-12T07:42:06;100459.78;;;24.54;94.10
80198;BME280;69517;52.030;7.106;2023-09-12T07:44:34;100449.53;;;24.60;94.56
80198;BME280;69517;52.030;7.106;2023-09-12T07:47:00;100447.53;;;24.53;94.90
80198;BME280;69517;52.030;7.106;2023-09-12T07:49:27;100434.00;;;24.46;95.22
80198;BME280;69517;52.030;7.106;2023-09-12T07:51:53;100430.41;;;24.47;95.18
80198;BME280;69517;52.030;7.106;2023-09-12T07:54:21;100414.41;;;24.39;95.83
80198;BME280;69517;52.030;7.106;2023-09-12T07:56:48;100422.16;;;24.41;95.94
80198;BME280;69517;52.030;7.106;2023-09-12T07:59:14;100417.84;;;24.40;96.00
80198;BME280;69517;52.030;7.106;2023-09-12T08:01:42;100407.44;;;24.38;96.34
80198;BME280;69517;52.030;7.106;2023-09-12T08:04:08;100411.59;;;24.41;95.99
80198;BME280;69517;52.030;7.106;2023-09-12T08:06:34;100418.44;;;24.43;95.85
80198;BME280;69517;52.030;7.106;2023-09-12T08:09:00;100422.66;;;24.55;95.66
80198;BME280;69517;52.030;7.106;2023-09-12T08:11:26;100417.81;;;24.60;94.98
80198;BME280;69517;52.030;7.106;2023-09-12T08:13:53;100421.38;;;24.50;96.10
80198;BME280;69517;52.030;7.106;2023-09-12T08:16:19;100414.41;;;24.39;96.67
80198;BME280;69517;52.030;7.106;2023-09-12T08:18:47;100414.13;;;24.42;96.05
80198;BME280;69517;52.030;7.106;2023-09-12T08:21:13;100413.81;;;24.36;96.92
80198;BME280;69517;52.030;7.106;2023-09-12T08:23:39;100421.19;;;24.32;96.74
80198;BME280;69517;52.030;7.106;2023-09-12T08:26:05;100431.59;;;24.34;96.67
80198;BME280;69517;52.030;7.106;2023-09-12T08:28:32;100440.63;;;24.31;96.93
80198;BME280;69517;52.030;7.106;2023-09-12T08:30:59;100450.16;;;24.43;96.33
80198;BME280;69517;52.030;7.106;2023-09-12T08:33:25;100466.66;;;24.36;96.55
80198;BME280;69517;52.030;7.106;2023-09-12T08:35:52;100468.91;;;24.40;96.11
80198;BME280;69517;52.030;7.106;2023-09-12T08:38:19;100465.81;;;24.35;96.82
80198;BME280;69517;52.030;7.106;2023-09-12T08:40:47;100463.59;;;24.40;96.46
80198;BME280;69517;52.030;7.106;2023-09-12T08:43:14;100466.25;;;24.40;96.45
80198;BME280;69517;52.030;7.106;2023-09-12T08:45:40;100466.13;;;24.42;96.21
80198;BME280;69517;52.030;7.106;2023-09-12T08:48:08;100467.81;;;24.43;96.31
80198;BME280;69517;52.030;7.106;2023-09-12T08:50:35;100471.16;;;24.45;95.81
80198;BME280;69517;52.030;7.106;2023-09-12T08:53:03;100474.66;;;24.45;95.74
80198;BME280;69517;52.030;7.106;2023-09-12T08:55:29;100481.97;;;24.42;95.70
80198;BME280;69517;52.030;7.106;2023-09-12T08:57:58;100487.03;;;24.45;96.03
80198;BME280;69517;52.030;7.106;2023-09-12T09:00:24;100486.88;;;24.46;95.53
80198;BME280;69517;52.030;7.106;2023-09-12T09:02:52;100502.03;;;24.44;95.64
80198;BME280;69517;52.030;7.106;2023-09-12T09:05:20;100500.03;;;24.37;96.31
80198;BME280;69517;52.030;7.106;2023-09-12T09:07:46;100498.97;;;24.39;96.16
80198;BME280;69517;52.030;7.106;2023-09-12T09:10:16;100489.34;;;24.38;96.33
80198;BME280;69517;52.030;7.106;2023-09-12T09:12:43;100498.81;;;24.41;95.81
80198;BME280;69517;52.030;7.106;2023-09-12T09:17:51;100481.25;;;24.40;96.21
80198;BME280;69517;52.030;7.106;2023-09-12T09:20:27;100480.75;;;24.46;95.68
80198;BME280;69517;52.030;7.106;2023-09-12T09:22:58;100488.81;;;24.44;95.93
80198;BME280;69517;52.030;7.106;2023-09-12T09:25:26;100484.75;;;24.40;95.79
80198;BME280;69517;52.030;7.106;2023-09-12T09:27:52;100480.91;;;24.44;95.58
80198;BME280;69517;52.030;7.106;2023-09-12T09:30:18;100490.75;;;24.42;95.89
80198;BME280;69517;52.030;7.106;2023-09-12T09:33:04;100498.81;;;24.41;96.11
80198;BME280;69517;52.030;7.106;2023-09-12T09:35:30;100484.22;;;24.46;95.46
80198;BME280;69517;52.030;7.106;2023-09-12T09:37:57;100477.97;;;24.47;95.64
80198;BME280;69517;52.030;7.106;2023-09-12T09:40:24;100494.09;;;24.44;95.75
80198;BME280;69517;52.030;7.106;2023-09-12T09:42:54;100489.66;;;24.45;95.63
80198;BME280;69517;52.030;7.106;2023-09-12T09:45:20;100469.22;;;24.47;95.96
80198;BME280;69517;52.030;7.106;2023-09-12T09:47:48;100477.00;;;24.48;95.49
80198;BME280;69517;52.030;7.106;2023-09-12T09:50:15;100478.09;;;24.46;96.05
80198;BME280;69517;52.030;7.106;2023-09-12T09:52:42;100490.75;;;24.42;96.44
80198;BME280;69517;52.030;7.106;2023-09-12T09:55:12;100503.13;;;24.42;96.68
80198;BME280;69517;52.030;7.106;2023-09-12T09:57:39;100508.41;;;24.42;96.64
80198;BME280;69517;52.030;7.106;2023-09-12T10:00:07;100509.81;;;24.46;96.60
80198;BME280;69517;52.030;7.106;2023-09-12T10:02:39;100501.50;;;24.50;96.24
80198;BME280;69517;52.030;7.106;2023-09-12T10:05:06;100504.28;;;24.49;96.31
80198;BME280;69517;52.030;7.106;2023-09-12T10:07:35;100518.88;;;24.53;96.17
80198;BME280;69517;52.030;7.106;2023-09-12T10:10:03;100507.34;;;24.54;96.46
80198;BME280;69517;52.030;7.106;2023-09-12T10:12:30;100503.75;;;24.55;96.41
80198;BME280;69517;52.030;7.106;2023-09-12T10:14:57;100514.75;;;24.60;96.47
80198;BME280;69517;52.030;7.106;2023-09-12T10:17:25;100522.56;;;24.61;96.41
80198;BME280;69517;52.030;7.106;2023-09-12T10:19:54;100529.66;;;24.61;96.52
80198;BME280;69517;52.030;7.106;2023-09-12T10:22:23;100537.59;;;24.61;96.80
80198;BME280;69517;52.030;7.106;2023-09-12T10:24:50;100529.09;;;24.57;96.98
80198;BME280;69517;52.030;7.106;2023-09-12T10:27:18;100533.97;;;24.62;96.58
80198;BME280;69517;52.030;7.106;2023-09-12T10:29:44;100529.41;;;24.64;96.95
80198;BME280;69517;52.030;7.106;2023-09-12T10:32:12;100536.34;;;24.65;96.28
80198;BME280;69517;52.030;7.106;2023-09-12T10:34:41;100539.97;;;24.64;96.39
80198;BME280;69517;52.030;7.106;2023-09-12T10:37:10;100542.63;;;24.64;96.46
80198;BME280;69517;52.030;7.106;2023-09-12T10:39:38;100540.78;;;24.64;96.20
80198;BME280;69517;52.030;7.106;2023-09-12T10:42:05;100549.72;;;24.63;96.57
80198;BME280;69517;52.030;7.106;2023-09-12T10:44:32;100532.72;;;24.66;96.36
80198;BME280;69517;52.030;7.106;2023-09-12T10:46:59;100532.19;;;24.62;96.13
80198;BME280;69517;52.030;7.106;2023-09-12T10:49:26;100526.59;;;24.65;96.16
80198;BME280;69517;52.030;7.106;2023-09-12T10:51:55;100533.69;;;24.65;96.37
80198;BME280;69517;52.030;7.106;2023-09-12T10:54:23;100523.13;;;24.65;96.39
80198;BME280;69517;52.030;7.106;2023-09-12T10:57:01;100518.00;;;24.63;96.10
80198;BME280;69517;52.030;7.106;2023-09-12T10:59:28;100520.34;;;24.66;96.01
80198;BME280;69517;52.030;7.106;2023-09-12T11:01:56;100516.03;;;24.65;96.24
80198;BME280;69517;52.030;7.106;2023-09-12T11:04:42;100525.22;;;24.61;96.44
80198;BME280;69517;52.030;7.106;2023-09-12T11:12:36;100502.50;;;24.59;96.66
80198;BME280;69517;52.030;7.106;2023-09-12T11:15:02;100506.94;;;24.58;96.82
80198;BME280;69517;52.030;7.106;2023-09-12T11:17:30;100502.66;;;24.57;96.81
80198;BME280;69517;52.030;7.106;2023-09-12T11:20:03;100509.75;;;24.57;96.87
80198;BME280;69517;52.030;7.106;2023-09-12T11:22:35;100509.47;;;24.60;96.53
80198;BME280;69517;52.030;7.106;2023-09-12T11:25:02;100500.72;;;24.59;96.53
80198;BME280;69517;52.030;7.106;2023-09-12T11:27:31;100509.59;;;24.58;96.83
80198;BME280;69517;52.030;7.106;2023-09-12T11:30:04;100504.06;;;24.61;96.47
80198;BME280;69517;52.030;7.106;2023-09-12T11:32:31;100504.06;;;24.61;96.56
80198;BME280;69517;52.030;7.106;2023-09-12T11:34:58;100503.34;;;24.59;96.51
80198;BME280;69517;52.030;7.106;2023-09-12T11:37:25;100504.31;;;24.58;96.43
80198;BME280;69517;52.030;7.106;2023-09-12T11:39:51;100497.38;;;24.57;96.75
80198;BME280;69517;52.030;7.106;2023-09-12T11:42:18;100503.22;;;24.61;96.61
80198;BME280;69517;52.030;7.106;2023-09-12T11:44:46;100497.22;;;24.59;96.60
80198;BME280;69517;52.030;7.106;2023-09-12T11:47:13;100496.00;;;24.63;96.38
80198;BME280;69517;52.030;7.106;2023-09-12T11:49:40;100490.72;;;24.63;96.12
80198;BME280;69517;52.030;7.106;2023-09-12T11:52:08;100485.56;;;24.61;96.40
80198;BME280;69517;52.030;7.106;2023-09-12T11:54:34;100484.59;;;24.62;96.18
80198;BME280;69517;52.030;7.106;2023-09-12T11:57:01;100482.91;;;24.61;96.34
80198;BME280;69517;52.030;7.106;2023-09-12T11:59:28;100477.63;;;24.61;96.30
80198;BME280;69517;52.030;7.106;2023-09-12T12:01:54;100472.59;;;24.58;96.53
80198;BME280;69517;52.030;7.106;2023-09-12T12:04:23;100478.47;;;24.62;96.05
80198;BME280;69517;52.030;7.106;2023-09-12T12:06:50;100475.94;;;24.60;96.35
80198;BME280;69517;52.030;7.106;2023-09-12T12:09:17;100472.59;;;24.58;96.42
80198;BME280;69517;52.030;7.106;2023-09-12T12:11:44;100468.03;;;24.60;96.50
80198;BME280;69517;52.030;7.106;2023-09-12T12:14:11;100459.84;;;24.63;96.06
80198;BME280;69517;52.030;7.106;2023-09-12T12:16:38;100457.56;;;24.59;96.59
80198;BME280;69517;52.030;7.106;2023-09-12T12:19:05;100455.41;;;24.64;96.07
80198;BME280;69517;52.030;7.106;2023-09-12T12:21:32;100444.94;;;24.62;96.30
80198;BME280;69517;52.030;7.106;2023-09-12T12:23:59;100450.22;;;24.62;95.95
80198;BME280;69517;52.030;7.106;2023-09-12T12:26:26;100444.22;;;24.60;96.30
80198;BME280;69517;52.030;7.106;2023-09-12T12:28:52;100443.16;;;24.63;96.08
80198;BME280;69517;52.030;7.106;2023-09-12T12:31:18;100434.50;;;24.61;96.38
80198;BME280;69517;52.030;7.106;2023-09-12T12:33:47;100441.72;;;24.59;96.59
80198;BME280;69517;52.030;7.106;2023-09-12T12:36:13;100436.47;;;24.69;96.09
80198;BME280;69517;52.030;7.106;2023-09-12T12:38:41;100436.06;;;24.63;96.05
80198;BME280;69517;52.030;7.106;2023-09-12T12:41:09;100434.63;;;24.59;96.50
80198;BME280;69517;52.030;7.106;2023-09-12T12:43:35;100440.88;;;24.58;96.59
80198;BME280;69517;52.030;7.106;2023-09-12T12:46:02;100440.34;;;24.64;96.14
80198;BME280;69517;52.030;7.106;2023-09-12T12:48:29;100440.63;;;24.61;96.14
80198;BME280;69517;52.030;7.106;2023-09-12T12:50:56;100452.03;;;24.62;96.35
80198;BME280;69517;52.030;7.106;2023-09-12T12:53:36;100447.72;;;24.61;96.17
80198;BME280;69517;52.030;7.106;2023-09-12T12:56:03;100445.06;;;24.61;96.20
80198;BME280;69517;52.030;7.106;2023-09-12T12:58:30;100445.19;;;24.59;96.60